sensor_id;sensor_type;location;lat;lon;timestamp;temperature;humidity
20438;DHT22;17436;50.338;8.810;2022-08-06T00:01:56;19.40;5.60
20438;DHT22;17436;50.338;8.810;2022-08-06T00:04:23;19.50;5.00
20438;DHT22;17436;50.338;8.810;2022-08-06T00:06:50;19.40;5.10
20438;DHT22;17436;50.338;8.810;2022-08-06T00:09:17;19.40;4.10
20438;DHT22;17436;50.338;8.810;2022-08-06T00:11:45;19.50;5.60
20438;DHT22;17436;50.338;8.810;2022-08-06T00:14:12;19.40;4.70
20438;DHT22;17436;50.338;8.810;2022-08-06T00:16:40;19.40;5.50
20438;DHT22;17436;50.338;8.810;2022-08-06T00:19:09;19.40;4.90
20438;DHT22;17436;50.338;8.810;2022-08-06T00:21:36;19.40;6.80
20438;DHT22;17436;50.338;8.810;2022-08-06T00:24:03;19.50;5.80
20438;DHT22;17436;50.338;8.810;2022-08-06T00:26:32;19.40;5.70
20438;DHT22;17436;50.338;8.810;2022-08-06T00:29:00;19.50;6.00
20438;DHT22;17436;50.338;8.810;2022-08-06T00:31:27;19.40;6.90
20438;DHT22;17436;50.338;8.810;2022-08-06T00:33:56;19.50;5.70
20438;DHT22;17436;50.338;8.810;2022-08-06T00:36:27;19.30;5.60
20438;DHT22;17436;50.338;8.810;2022-08-06T00:38:54;19.30;4.10
20438;DHT22;17436;50.338;8.810;2022-08-06T00:41:21;19.30;2.80
20438;DHT22;17436;50.338;8.810;2022-08-06T00:43:48;19.20;2.60
20438;DHT22;17436;50.338;8.810;2022-08-06T00:46:16;19.20;2.00
20438;DHT22;17436;50.338;8.810;2022-08-06T00:48:44;19.20;1.00
20438;DHT22;17436;50.338;8.810;2022-08-06T00:51:10;19.30;1.00
20438;DHT22;17436;50.338;8.810;2022-08-06T00:53:37;19.30;1.00
20438;DHT22;17436;50.338;8.810;2022-08-06T00:56:04;19.20;1.00
20438;DHT22;17436;50.338;8.810;2022-08-06T00:58:32;19.20;1.00
20438;DHT22;17436;50.338;8.810;2022-08-06T01:00:59;19.30;1.00
20438;DHT22;17436;50.338;8.810;2022-08-06T01:03:27;19.10;1.00
20438;DHT22;17436;50.338;8.810;2022-08-06T01:06:02;19.10;1.00
20438;DHT22;17436;50.338;8.810;2022-08-06T01:08:29;19.00;1.00
20438;DHT22;17436;50.338;8.810;2022-08-06T01:10:56;19.00;1.00
20438;DHT22;17436;50.338;8.810;2022-08-06T01:13:22;19.00;1.00
20438;DHT22;17436;50.338;8.810;2022-08-06T01:15:54;18.90;1.20
20438;DHT22;17436;50.338;8.810;2022-08-06T01:18:27;18.80;1.30
20438;DHT22;17436;50.338;8.810;2022-08-06T01:21:09;18.70;1.20
20438;DHT22;17436;50.338;8.810;2022-08-06T01:23:51;18.70;1.30
20438;DHT22;17436;50.338;8.810;2022-08-06T01:26:40;18.90;1.00
20438;DHT22;17436;50.338;8.810;2022-08-06T01:29:15;18.80;1.10
20438;DHT22;17436;50.338;8.810;2022-08-06T01:31:46;18.80;1.20
20438;DHT22;17436;50.338;8.810;2022-08-06T01:34:18;18.60;1.00
20438;DHT22;17436;50.338;8.810;2022-08-06T01:36:50;18.60;1.50
20438;DHT22;17436;50.338;8.810;2022-08-06T01:39:20;18.50;1.60
20438;DHT22;17436;50.338;8.810;2022-08-06T01:41:51;18.40;3.00
20438;DHT22;17436;50.338;8.810;2022-08-06T01:44:23;18.40;2.90
20438;DHT22;17436;50.338;8.810;2022-08-06T01:46:55;18.30;3.10
20438;DHT22;17436;50.338;8.810;2022-08-06T01:49:25;18.30;3.30
20438;DHT22;17436;50.338;8.810;2022-08-06T01:51:55;18.40;2.40
20438;DHT22;17436;50.338;8.810;2022-08-06T01:54:24;18.40;2.40
20438;DHT22;17436;50.338;8.810;2022-08-06T01:56:52;18.10;2.70
20438;DHT22;17436;50.338;8.810;2022-08-06T01:59:24;18.10;3.90
20438;DHT22;17436;50.338;8.810;2022-08-06T02:01:54;18.00;2.90
20438;DHT22;17436;50.338;8.810;2022-08-06T02:04:29;18.00;2.40
20438;DHT22;17436;50.338;8.810;2022-08-06T02:06:59;18.10;2.20
20438;DHT22;17436;50.338;8.810;2022-08-06T02:09:28;18.20;2.00
20438;DHT22;17436;50.338;8.810;2022-08-06T02:11:58;18.10;3.10
20438;DHT22;17436;50.338;8.810;2022-08-06T02:14:34;17.80;2.90
20438;DHT22;17436;50.338;8.810;2022-08-06T02:17:06;17.80;2.20
20438;DHT22;17436;50.338;8.810;2022-08-06T02:19:34;17.90;2.40
20438;DHT22;17436;50.338;8.810;2022-08-06T02:22:03;17.90;2.60
20438;DHT22;17436;50.338;8.810;2022-08-06T02:24:31;17.90;3.80
20438;DHT22;17436;50.338;8.810;2022-08-06T02:27:00;17.90;3.90
20438;DHT22;17436;50.338;8.810;2022-08-06T02:29:29;17.90;3.20
20438;DHT22;17436;50.338;8.810;2022-08-06T02:31:57;17.80;3.20
20438;DHT22;17436;50.338;8.810;2022-08-06T02:34:24;17.70;3.60
20438;DHT22;17436;50.338;8.810;2022-08-06T02:36:56;17.90;3.40
20438;DHT22;17436;50.338;8.810;2022-08-06T02:39:26;17.80;2.80
20438;DHT22;17436;50.338;8.810;2022-08-06T02:42:03;17.70;3.70
20438;DHT22;17436;50.338;8.810;2022-08-06T02:44:45;17.70;3.80
20438;DHT22;17436;50.338;8.810;2022-08-06T02:47:17;17.80;3.90
20438;DHT22;17436;50.338;8.810;2022-08-06T02:49:51;17.70;4.00
20438;DHT22;17436;50.338;8.810;2022-08-06T02:52:31;17.90;3.40
20438;DHT22;17436;50.338;8.810;2022-08-06T02:55:05;17.80;3.10
20438;DHT22;17436;50.338;8.810;2022-08-06T02:57:37;17.60;3.70
20438;DHT22;17436;50.338;8.810;2022-08-06T03:00:08;17.40;3.90
20438;DHT22;17436;50.338;8.810;2022-08-06T03:02:37;17.50;4.10
20438;DHT22;17436;50.338;8.810;2022-08-06T03:05:09;17.40;5.30
20438;DHT22;17436;50.338;8.810;2022-08-06T03:07:39;17.60;4.20
20438;DHT22;17436;50.338;8.810;2022-08-06T03:10:08;17.40;4.20
20438;DHT22;17436;50.338;8.810;2022-08-06T03:12:39;17.30;4.50
20438;DHT22;17436;50.338;8.810;2022-08-06T03:15:10;17.50;4.50
20438;DHT22;17436;50.338;8.810;2022-08-06T03:17:39;17.60;3.60
20438;DHT22;17436;50.338;8.810;2022-08-06T03:20:08;17.30;3.30
20438;DHT22;17436;50.338;8.810;2022-08-06T03:22:37;16.90;5.70
20438;DHT22;17436;50.338;8.810;2022-08-06T03:25:07;17.10;5.80
20438;DHT22;17436;50.338;8.810;2022-08-06T03:27:35;17.30;4.50
20438;DHT22;17436;50.338;8.810;2022-08-06T03:30:03;17.40;3.70
20438;DHT22;17436;50.338;8.810;2022-08-06T03:32:32;17.50;4.20
20438;DHT22;17436;50.338;8.810;2022-08-06T03:35:00;17.40;4.40
20438;DHT22;17436;50.338;8.810;2022-08-06T03:37:30;17.20;3.30
20438;DHT22;17436;50.338;8.810;2022-08-06T03:40:00;16.70;5.20
20438;DHT22;17436;50.338;8.810;2022-08-06T03:42:28;16.90;6.90
20438;DHT22;17436;50.338;8.810;2022-08-06T03:44:55;17.10;6.00
20438;DHT22;17436;50.338;8.810;2022-08-06T03:47:24;17.10;5.70
20438;DHT22;17436;50.338;8.810;2022-08-06T03:49:55;17.10;4.00
20438;DHT22;17436;50.338;8.810;2022-08-06T03:52:26;16.90;6.90
20438;DHT22;17436;50.338;8.810;2022-08-06T03:54:58;16.90;7.20
20438;DHT22;17436;50.338;8.810;2022-08-06T03:57:30;16.90;7.00
20438;DHT22;17436;50.338;8.810;2022-08-06T03:59:59;17.10;6.90
20438;DHT22;17436;50.338;8.810;2022-08-06T04:02:28;17.10;7.10
20438;DHT22;17436;50.338;8.810;2022-08-06T04:04:58;17.00;6.90
20438;DHT22;17436;50.338;8.810;2022-08-06T04:07:27;17.00;7.30
20438;DHT22;17436;50.338;8.810;2022-08-06T04:09:54;17.00;7.10
20438;DHT22;17436;50.338;8.810;2022-08-06T04:12:22;17.00;6.40
20438;DHT22;17436;50.338;8.810;2022-08-06T04:14:49;17.00;7.80
20438;DHT22;17436;50.338;8.810;2022-08-06T04:17:17;17.00;7.40
20438;DHT22;17436;50.338;8.810;2022-08-06T04:19:46;17.10;7.20
20438;DHT22;17436;50.338;8.810;2022-08-06T04:22:15;17.10;8.60
20438;DHT22;17436;50.338;8.810;2022-08-06T04:24:45;16.90;8.60
20438;DHT22;17436;50.338;8.810;2022-08-06T04:27:13;16.90;8.60
20438;DHT22;17436;50.338;8.810;2022-08-06T04:29:41;16.80;8.50
20438;DHT22;17436;50.338;8.810;2022-08-06T04:32:10;16.80;8.50
20438;DHT22;17436;50.338;8.810;2022-08-06T04:34:41;16.90;8.60
20438;DHT22;17436;50.338;8.810;2022-08-06T04:37:12;16.90;8.60
20438;DHT22;17436;50.338;8.810;2022-08-06T04:39:40;17.00;8.60
20438;DHT22;17436;50.338;8.810;2022-08-06T04:42:07;16.90;8.60
20438;DHT22;17436;50.338;8.810;2022-08-06T04:44:36;16.90;8.60
20438;DHT22;17436;50.338;8.810;2022-08-06T04:47:04;16.80;8.50
20438;DHT22;17436;50.338;8.810;2022-08-06T04:49:31;16.90;9.50
20438;DHT22;17436;50.338;8.810;2022-08-06T04:51:58;17.10;8.70
20438;DHT22;17436;50.338;8.810;2022-08-06T04:54:25;17.20;8.80
20438;DHT22;17436;50.338;8.810;2022-08-06T04:56:53;17.20;8.80
20438;DHT22;17436;50.338;8.810;2022-08-06T04:59:20;17.20;8.40
20438;DHT22;17436;50.338;8.810;2022-08-06T05:01:46;17.30;8.80
20438;DHT22;17436;50.338;8.810;2022-08-06T05:04:13;17.40;8.90
20438;DHT22;17436;50.338;8.810;2022-08-06T05:06:49;17.50;8.10
20438;DHT22;17436;50.338;8.810;2022-08-06T05:09:24;17.70;8.40
20438;DHT22;17436;50.338;8.810;2022-08-06T05:11:54;17.90;6.40
20438;DHT22;17436;50.338;8.810;2022-08-06T05:14:29;17.70;6.20
20438;DHT22;17436;50.338;8.810;2022-08-06T05:16:57;18.10;6.40
20438;DHT22;17436;50.338;8.810;2022-08-06T05:19:32;18.60;4.20
20438;DHT22;17436;50.338;8.810;2022-08-06T05:22:02;19.30;1.90
20438;DHT22;17436;50.338;8.810;2022-08-06T05:24:29;19.70;1.00
20438;DHT22;17436;50.338;8.810;2022-08-06T05:26:57;20.00;1.00
20438;DHT22;17436;50.338;8.810;2022-08-06T05:29:24;20.30;1.00
20438;DHT22;17436;50.338;8.810;2022-08-06T05:31:57;20.60;1.00
20438;DHT22;17436;50.338;8.810;2022-08-06T05:34:24;20.70;1.00
20438;DHT22;17436;50.338;8.810;2022-08-06T05:36:51;20.40;1.00
20438;DHT22;17436;50.338;8.810;2022-08-06T05:39:18;20.50;1.00
20438;DHT22;17436;50.338;8.810;2022-08-06T05:41:45;20.50;1.00
20438;DHT22;17436;50.338;8.810;2022-08-06T05:44:13;20.60;1.00
20438;DHT22;17436;50.338;8.810;2022-08-06T05:46:45;20.40;1.00
